Airfield :
LOGIN :

Register | Disclaimer

   EN    FR    IT 

 










Legend :    VFR   Marginal VFR   IFR   Intensive IFR   Very Intensive IFR
Visi :
Ceiling :
>= 8 km
>= 3000ft
5 to 8 km
1000 to 3000 ft
1500m to 5 km
500 to 1000 ft
800 to 1500m
200 to 500 ft
< 800m
< 200 ft
Symbols :   Thunderstorms  Fog  Heavy snow  Heavy precipitations  Wind > 20 kt
SIGMETs :     Misc.  Thunderstorms  Icing  Turbulence  Mountain Waves  Volcanic Ashes







- Airport Elevation : 776 ft
- IATA code : RMS


ETAR - Ramstein Air Base

CURRENT METAR :
  • 222258Z 00000KT 9999 FEW130 20/19 A2990 RMK AO2A SLP114 T01980190 $

EXPIRED METARs :
  • 222158Z 00000KT 9999 CLR 19/19 A2988 RMK AO2A SLP108 T01910188 $
  • 222058Z 29005KT 9999 CLR 22/18 A2986 RMK AO2A SLP100 T02220178 $

TAF AMD TAF ETAR
Valid from the 22 at 22:00 until the 24 at 00:00 UTC


222208Z 2222/2324 29009KT 9999 FEW180 QNH2984INS
BECMG 2312/2313 27012KT 9999 SCT180 QNH2995INS TX31/2315Z TN16/2304Z
No reported NOTAMs for that airfield.



MET'MAP, your aeronautical weather chart ! - Copyright ORBIFLY December 2007 - Disclaimer

ORBIFLY MET'MAP TEAM :

Programming & Development : Alexandra Zaïnal
Concept & Development : Baudouin d'Aumeries
Co-Development & Prog : Marc-Olivier Méhu
Technical & hardware support : Manuel Goepfert

Contact : metmap@orbifly.com




SOURCES & CREDITS :

   NOAA